createdAt,value
2023-02-24T00:02:08.786Z,19.02
2023-02-24T00:04:41.881Z,16.10
2023-02-24T00:07:14.551Z,16.08
2023-02-24T00:09:49.838Z,15.52
2023-02-24T00:12:22.499Z,16.52
2023-02-24T00:14:55.921Z,15.70
2023-02-24T00:17:30.828Z,15.88
2023-02-24T00:20:05.974Z,19.38
2023-02-24T00:22:40.834Z,24.05
2023-02-24T00:25:20.107Z,21.30
2023-02-24T00:28:01.925Z,17.92
2023-02-24T00:30:34.989Z,18.05
2023-02-24T00:33:07.575Z,17.77
2023-02-24T00:35:40.511Z,14.63
2023-02-24T00:38:13.734Z,14.60
2023-02-24T00:40:46.684Z,14.68
2023-02-24T00:43:19.312Z,13.75
2023-02-24T00:45:54.263Z,15.57
2023-02-24T00:48:28.714Z,11.57
2023-02-24T00:51:01.705Z,11.55
2023-02-24T00:53:35.034Z,11.15
2023-02-24T00:56:12.361Z,12.43
2023-02-24T00:58:45.297Z,14.23
2023-02-24T01:01:22.369Z,12.93
2023-02-24T01:03:58.071Z,13.40
2023-02-24T01:06:32.460Z,13.90
2023-02-24T01:09:08.590Z,13.05
2023-02-24T01:12:00.708Z,13.35
2023-02-24T01:14:34.601Z,17.90
2023-02-24T01:17:08.235Z,13.98
2023-02-24T01:19:41.336Z,12.20
2023-02-24T01:22:15.363Z,12.45
2023-02-24T01:24:48.984Z,12.00
2023-02-24T01:27:22.025Z,12.68
2023-02-24T01:29:54.611Z,12.13
2023-02-24T01:32:32.357Z,11.15
2023-02-24T01:35:05.192Z,12.38
2023-02-24T01:37:38.470Z,11.23
2023-02-24T01:40:21.240Z,13.18
2023-02-24T01:45:29.519Z,12.48
2023-02-24T01:48:06.172Z,11.48
2023-02-24T01:50:39.118Z,12.25
2023-02-24T01:53:12.441Z,12.75
2023-02-24T01:55:47.460Z,12.75
2023-02-24T01:58:25.720Z,11.25
2023-02-24T02:01:01.056Z,12.50
2023-02-24T02:03:35.680Z,13.23
2023-02-24T02:06:12.386Z,13.70
2023-02-24T02:08:45.474Z,13.15
2023-02-24T02:11:21.297Z,14.00
2023-02-24T02:13:55.539Z,15.15
2023-02-24T02:16:44.361Z,14.88
2023-02-24T02:19:32.390Z,15.98
2023-02-24T02:22:17.822Z,18.02
2023-02-24T02:24:50.712Z,16.80
2023-02-24T02:27:41.288Z,17.23
2023-02-24T02:30:33.014Z,16.13
2023-02-24T02:33:27.751Z,17.38
2023-02-24T02:36:03.606Z,17.38
2023-02-24T02:38:41.405Z,13.82
2023-02-24T02:41:36.359Z,15.98
2023-02-24T02:44:19.583Z,14.63
2023-02-24T02:46:56.877Z,12.90
2023-02-24T02:49:40.708Z,15.23
2023-02-24T02:52:18.221Z,14.65
2023-02-24T02:54:57.272Z,13.55
2023-02-24T02:57:31.116Z,18.10
2023-02-24T03:00:13.771Z,16.02
2023-02-24T03:02:48.097Z,14.98
2023-02-24T03:05:23.231Z,14.85
2023-02-24T03:07:57.279Z,16.30
2023-02-24T03:10:30.324Z,14.85
2023-02-24T03:13:05.970Z,12.15
2023-02-24T03:15:42.736Z,15.23
2023-02-24T03:18:19.208Z,13.32
2023-02-24T03:21:12.241Z,13.20
2023-02-24T03:23:48.730Z,13.07
2023-02-24T03:26:33.677Z,14.07
2023-02-24T03:29:12.154Z,13.63
2023-02-24T03:32:06.588Z,12.20
2023-02-24T03:34:51.898Z,12.35
2023-02-24T03:37:28.337Z,13.32
2023-02-24T03:40:21.982Z,10.90
2023-02-24T03:42:57.964Z,13.55
2023-02-24T03:45:38.537Z,13.70
2023-02-24T03:48:12.475Z,12.65
2023-02-24T03:50:46.802Z,12.40
2023-02-24T03:54:00.687Z,14.05
2023-02-24T03:56:40.777Z,11.52
2023-02-24T03:59:24.023Z,12.57
2023-02-24T04:02:18.056Z,10.95
2023-02-24T04:04:55.090Z,10.38
2023-02-24T04:07:34.604Z,10.50
2023-02-24T04:10:15.786Z,11.52
2023-02-24T04:12:53.124Z,11.43
2023-02-24T04:15:29.912Z,14.93
2023-02-24T04:18:07.562Z,20.30
2023-02-24T04:20:44.254Z,37.05
2023-02-24T04:23:20.261Z,25.10
2023-02-24T04:25:53.926Z,13.65
2023-02-24T04:28:27.801Z,11.18
2023-02-24T04:31:10.431Z,12.23
2023-02-24T04:33:50.623Z,10.50
2023-02-24T04:36:27.868Z,11.93
2023-02-24T04:39:00.784Z,11.48
2023-02-24T04:41:33.848Z,16.60
2023-02-24T04:44:06.807Z,17.23
2023-02-24T04:46:39.335Z,17.08
2023-02-24T04:49:12.844Z,12.45
2023-02-24T04:51:45.918Z,11.90
2023-02-24T04:54:20.269Z,11.48
2023-02-24T04:56:52.946Z,9.30
2023-02-24T04:59:26.017Z,9.75
2023-02-24T05:02:01.810Z,10.20
2023-02-24T05:04:39.154Z,10.63
2023-02-24T05:07:13.314Z,11.65
2023-02-24T05:09:49.020Z,8.75
2023-02-24T05:12:21.588Z,9.52
2023-02-24T05:14:55.019Z,9.02
2023-02-24T05:17:28.077Z,9.45
2023-02-24T05:20:19.576Z,9.15
2023-02-24T05:22:52.154Z,10.25
2023-02-24T05:25:25.701Z,9.57
2023-02-24T05:27:58.295Z,11.27
2023-02-24T05:30:31.459Z,12.27
2023-02-24T05:33:04.199Z,12.27
2023-02-24T05:35:37.382Z,12.95
2023-02-24T05:38:09.933Z,10.63
2023-02-24T05:40:47.032Z,10.57
2023-02-24T05:43:19.704Z,11.80
2023-02-24T05:45:52.552Z,12.35
2023-02-24T05:48:25.235Z,11.55
2023-02-24T05:51:00.006Z,11.13
2023-02-24T05:53:32.577Z,9.82
2023-02-24T05:56:06.178Z,9.88
2023-02-24T05:58:45.257Z,9.65
2023-02-24T06:01:22.094Z,8.77
2023-02-24T06:03:54.844Z,8.60
2023-02-24T06:06:29.118Z,8.85
2023-02-24T06:09:07.878Z,10.63
2023-02-24T06:11:41.446Z,9.70
2023-02-24T06:14:14.067Z,11.80
2023-02-24T06:16:47.218Z,9.90
2023-02-24T06:19:21.030Z,10.05
2023-02-24T06:21:54.247Z,9.48
2023-02-24T06:24:27.365Z,9.40
2023-02-24T06:27:10.010Z,9.07
2023-02-24T06:29:42.511Z,9.65
2023-02-24T06:32:15.937Z,10.80
2023-02-24T06:34:48.756Z,12.32
2023-02-24T06:37:25.617Z,10.38
2023-02-24T06:39:58.753Z,12.05
2023-02-24T06:42:31.955Z,11.52
2023-02-24T06:45:07.752Z,15.40
2023-02-24T06:47:41.243Z,15.23
2023-02-24T06:50:14.168Z,13.27
2023-02-24T06:52:47.444Z,11.10
2023-02-24T06:55:25.732Z,12.18
2023-02-24T06:58:00.520Z,10.05
2023-02-24T07:00:37.481Z,12.07
2023-02-24T07:03:17.178Z,11.40
2023-02-24T07:05:51.302Z,11.70
2023-02-24T07:08:25.004Z,12.13
2023-02-24T07:10:58.434Z,11.90
2023-02-24T07:13:31.493Z,10.43
2023-02-24T07:16:07.510Z,10.95
2023-02-24T07:18:40.924Z,10.10
2023-02-24T07:21:13.437Z,11.63
2023-02-24T07:23:49.963Z,9.80
2023-02-24T07:26:24.489Z,10.23
2023-02-24T07:28:58.395Z,10.80
2023-02-24T07:31:33.585Z,12.88
2023-02-24T07:34:06.783Z,13.02
2023-02-24T07:36:49.437Z,11.27
2023-02-24T07:39:24.009Z,10.57
2023-02-24T07:41:57.402Z,8.88
2023-02-24T07:44:30.695Z,9.57
2023-02-24T07:47:08.214Z,11.02
2023-02-24T07:49:41.317Z,13.32
2023-02-24T07:52:14.088Z,10.30
2023-02-24T07:54:48.852Z,10.98
2023-02-24T07:57:22.636Z,11.20
2023-02-24T07:59:55.673Z,11.00
2023-02-24T08:02:29.621Z,10.77
2023-02-24T08:05:03.179Z,11.57
2023-02-24T08:07:35.664Z,12.95
2023-02-24T08:10:24.616Z,10.02
2023-02-24T08:12:57.525Z,8.73
2023-02-24T08:15:34.613Z,9.73
2023-02-24T08:18:07.246Z,9.10
2023-02-24T08:20:52.584Z,9.00
2023-02-24T08:23:26.014Z,9.98
2023-02-24T08:25:58.886Z,8.55
2023-02-24T08:28:32.186Z,9.15
2023-02-24T08:31:05.396Z,9.20
2023-02-24T08:33:38.089Z,8.63
2023-02-24T08:36:10.993Z,8.82
2023-02-24T08:38:45.298Z,7.78
2023-02-24T08:41:21.729Z,12.75
2023-02-24T08:43:55.190Z,11.90
2023-02-24T08:46:33.186Z,10.45
2023-02-24T08:49:11.114Z,11.85
2023-02-24T08:51:48.220Z,9.60
2023-02-24T08:54:27.708Z,10.77
2023-02-24T08:57:08.498Z,9.48
2023-02-24T08:59:43.753Z,8.38
2023-02-24T09:02:24.357Z,10.00
2023-02-24T09:05:03.972Z,10.90
2023-02-24T09:07:38.261Z,11.40
2023-02-24T09:10:18.236Z,10.70
2023-02-24T09:12:53.863Z,9.70
2023-02-24T09:15:41.651Z,9.73
2023-02-24T09:18:14.677Z,10.48
2023-02-24T09:21:05.899Z,10.73
2023-02-24T09:23:46.279Z,11.13
2023-02-24T09:26:21.009Z,10.30
2023-02-24T09:28:56.634Z,10.60
2023-02-24T09:31:41.177Z,10.93
2023-02-24T09:34:18.913Z,9.95
2023-02-24T09:37:03.520Z,11.07
2023-02-24T09:39:55.531Z,12.85
2023-02-24T09:42:34.960Z,8.75
2023-02-24T09:45:13.436Z,9.10
2023-02-24T09:47:55.914Z,10.63
2023-02-24T09:51:02.207Z,7.88
2023-02-24T09:53:49.704Z,9.60
2023-02-24T09:56:31.997Z,10.57
2023-02-24T10:01:47.977Z,8.73
2023-02-24T10:04:27.758Z,8.38
2023-02-24T10:07:16.476Z,24.92
2023-02-24T10:10:20.009Z,7.20
2023-02-24T10:12:58.668Z,7.22
2023-02-24T10:15:56.980Z,6.85
2023-02-24T10:18:33.290Z,9.70
2023-02-24T10:21:17.242Z,6.50
2023-02-24T10:23:59.757Z,7.50
2023-02-24T10:26:59.518Z,7.00
2023-02-24T10:29:43.641Z,8.18
2023-02-24T10:32:29.586Z,10.48
2023-02-24T10:35:02.798Z,8.85
2023-02-24T10:37:35.344Z,9.68
2023-02-24T10:40:13.381Z,6.50
2023-02-24T10:42:48.304Z,8.20
2023-02-24T10:45:26.630Z,7.10
2023-02-24T10:48:00.520Z,8.13
2023-02-24T10:50:36.050Z,6.13
2023-02-24T10:53:35.364Z,6.25
2023-02-24T10:56:42.034Z,6.30
2023-02-24T10:59:21.816Z,5.78
2023-02-24T11:01:59.697Z,7.55
2023-02-24T11:04:54.392Z,5.35
2023-02-24T11:07:44.210Z,5.35
2023-02-24T11:10:26.455Z,6.30
2023-02-24T11:13:18.949Z,4.90
2023-02-24T11:16:12.736Z,5.13
2023-02-24T11:18:53.305Z,6.80
2023-02-24T11:21:27.018Z,7.30
2023-02-24T11:24:03.164Z,5.90
2023-02-24T11:26:37.364Z,5.70
2023-02-24T11:29:17.871Z,5.78
2023-02-24T11:31:59.382Z,5.53
2023-02-24T11:37:09.469Z,5.38
2023-02-24T11:39:42.591Z,5.18
2023-02-24T11:42:39.510Z,4.30
2023-02-24T11:45:27.908Z,5.60
2023-02-24T11:48:00.443Z,5.13
2023-02-24T11:50:33.395Z,4.13
2023-02-24T11:53:32.434Z,4.75
2023-02-24T11:56:23.841Z,4.15
2023-02-24T11:58:59.435Z,4.43
2023-02-24T12:01:32.437Z,4.80
2023-02-24T12:04:19.906Z,6.40
2023-02-24T12:06:57.905Z,4.78
2023-02-24T12:09:37.617Z,5.93
2023-02-24T12:12:25.206Z,6.82
2023-02-24T12:14:59.407Z,7.43
2023-02-24T12:17:41.279Z,5.30
2023-02-24T12:20:21.817Z,9.30
2023-02-24T12:23:16.036Z,5.63
2023-02-24T12:25:51.292Z,14.93
2023-02-24T12:28:27.131Z,8.45
2023-02-24T12:31:05.517Z,18.80
2023-02-24T12:33:43.540Z,19.77
2023-02-24T12:36:25.342Z,22.73
2023-02-24T12:39:01.143Z,10.57
2023-02-24T12:41:57.086Z,6.30
2023-02-24T12:44:29.989Z,9.50
2023-02-24T12:47:04.295Z,8.98
2023-02-24T12:49:41.072Z,9.00
2023-02-24T12:52:28.845Z,7.22
2023-02-24T12:55:06.284Z,7.82
2023-02-24T12:57:39.721Z,8.05
2023-02-24T13:00:33.386Z,5.68
2023-02-24T13:03:24.391Z,10.32
2023-02-24T13:05:58.371Z,6.68
2023-02-24T13:08:31.301Z,10.68
2023-02-24T13:11:27.900Z,10.00
2023-02-24T13:14:03.587Z,6.68
2023-02-24T13:16:36.683Z,5.03
2023-02-24T13:19:20.084Z,5.60
2023-02-24T13:22:05.476Z,6.80
2023-02-24T13:24:42.370Z,7.63
2023-02-24T13:27:25.692Z,7.47
2023-02-24T13:30:00.914Z,6.55
2023-02-24T13:32:35.773Z,7.72
2023-02-24T13:35:14.610Z,7.25
2023-02-24T13:37:48.930Z,4.40
2023-02-24T13:40:24.500Z,7.15
2023-02-24T13:43:01.847Z,5.25
2023-02-24T13:45:36.292Z,19.40
2023-02-24T13:48:12.108Z,5.82
2023-02-24T13:50:44.609Z,7.32
2023-02-24T13:53:17.528Z,7.60
2023-02-24T13:55:59.335Z,9.10
2023-02-24T13:58:41.342Z,5.85
2023-02-24T14:01:15.061Z,6.25
2023-02-24T14:04:03.471Z,5.90
2023-02-24T14:06:37.856Z,5.60
2023-02-24T14:09:15.578Z,5.35
2023-02-24T14:11:50.828Z,5.75
2023-02-24T14:14:24.460Z,5.43
2023-02-24T14:16:57.106Z,4.93
2023-02-24T14:19:30.068Z,5.63
2023-02-24T14:22:02.659Z,7.25
2023-02-24T14:24:35.760Z,7.63
2023-02-24T14:27:08.402Z,7.15
2023-02-24T14:29:44.387Z,8.63
2023-02-24T14:32:21.303Z,9.00
2023-02-24T14:34:54.720Z,11.48
2023-02-24T14:37:29.494Z,11.65
2023-02-24T14:40:06.170Z,9.73
2023-02-24T14:42:46.671Z,8.77
2023-02-24T14:45:20.873Z,8.43
2023-02-24T14:47:53.939Z,7.93
2023-02-24T14:50:29.333Z,6.57
2023-02-24T14:53:05.372Z,6.13
2023-02-24T14:55:40.531Z,6.18
2023-02-24T14:58:15.629Z,6.85
2023-02-24T15:00:50.246Z,7.70
2023-02-24T15:03:25.572Z,7.13
2023-02-24T15:05:59.912Z,7.15
2023-02-24T15:08:35.521Z,7.15
2023-02-24T15:11:12.614Z,5.30
2023-02-24T15:13:47.177Z,7.40
2023-02-24T15:16:23.790Z,11.20
2023-02-24T15:19:01.608Z,10.90
2023-02-24T15:21:39.633Z,8.85
2023-02-24T15:24:27.397Z,8.80
2023-02-24T15:27:02.188Z,10.82
2023-02-24T15:29:34.755Z,6.13
2023-02-24T15:32:15.329Z,5.63
2023-02-24T15:34:48.421Z,4.68
2023-02-24T15:37:25.949Z,8.52
2023-02-24T15:40:21.084Z,7.57
2023-02-24T15:43:20.105Z,5.78
2023-02-24T15:45:53.215Z,5.45
2023-02-24T15:48:31.335Z,6.20
2023-02-24T15:51:04.814Z,6.70
2023-02-24T15:53:37.802Z,8.63
2023-02-24T15:56:10.415Z,8.32
2023-02-24T15:58:43.862Z,8.57
2023-02-24T16:01:16.636Z,9.20
2023-02-24T16:03:50.005Z,11.38
2023-02-24T16:06:23.348Z,11.52
2023-02-24T16:08:57.415Z,14.15
2023-02-24T16:11:32.208Z,13.80
2023-02-24T16:14:05.763Z,16.73
2023-02-24T16:16:38.396Z,20.67
2023-02-24T16:19:13.735Z,16.23
2023-02-24T16:21:46.797Z,14.88
2023-02-24T16:24:21.565Z,13.68
2023-02-24T16:26:54.440Z,13.65
2023-02-24T16:29:27.333Z,13.35
2023-02-24T16:32:00.306Z,13.35
2023-02-24T16:34:33.613Z,18.20
2023-02-24T16:37:32.397Z,26.77
2023-02-24T16:40:15.264Z,23.55
2023-02-24T16:42:48.624Z,24.17
2023-02-24T16:45:21.983Z,29.27
2023-02-24T16:47:55.631Z,26.65
2023-02-24T16:50:33.828Z,20.42
2023-02-24T16:53:07.347Z,20.50
2023-02-24T16:55:40.282Z,17.58
2023-02-24T16:58:13.336Z,22.33
2023-02-24T17:00:50.185Z,18.80
2023-02-24T17:03:24.467Z,17.02
2023-02-24T17:05:58.146Z,15.70
2023-02-24T17:08:30.852Z,21.98
2023-02-24T17:11:04.495Z,20.98
2023-02-24T17:13:37.129Z,19.42
2023-02-24T17:16:10.131Z,17.33
2023-02-24T17:18:42.765Z,20.63
2023-02-24T17:21:16.219Z,22.27
2023-02-24T17:23:48.805Z,21.95
2023-02-24T17:26:22.084Z,24.30
2023-02-24T17:28:54.798Z,19.77
2023-02-24T17:31:32.027Z,19.23
2023-02-24T17:34:06.341Z,16.65
2023-02-24T17:36:39.359Z,17.73
2023-02-24T17:39:11.824Z,19.80
2023-02-24T17:41:44.742Z,27.25
2023-02-24T17:44:17.386Z,25.95
2023-02-24T17:46:52.371Z,39.20
2023-02-24T17:49:25.040Z,38.05
2023-02-24T17:51:57.867Z,42.45
2023-02-24T17:54:30.471Z,36.05
2023-02-24T17:57:03.384Z,32.03
2023-02-24T17:59:36.460Z,32.30
2023-02-24T18:02:11.298Z,19.45
2023-02-24T18:04:44.363Z,19.38
2023-02-24T18:07:17.326Z,28.77
2023-02-24T18:09:49.814Z,21.55
2023-02-24T18:12:24.550Z,20.23
2023-02-24T18:15:07.955Z,19.20
2023-02-24T18:17:42.098Z,17.00
2023-02-24T18:20:14.698Z,15.73
2023-02-24T18:22:47.562Z,14.90
2023-02-24T18:25:20.142Z,15.18
2023-02-24T18:27:53.194Z,12.02
2023-02-24T18:30:25.928Z,11.73
2023-02-24T18:32:59.090Z,9.52
2023-02-24T18:35:32.391Z,9.23
2023-02-24T18:38:05.272Z,10.95
2023-02-24T18:40:38.514Z,9.98
2023-02-24T18:43:11.433Z,8.90
2023-02-24T18:45:43.994Z,9.95
2023-02-24T18:48:16.892Z,9.40
2023-02-24T18:50:53.288Z,9.35
2023-02-24T18:53:27.995Z,10.95
2023-02-24T18:56:02.014Z,9.35
2023-02-24T18:58:37.336Z,8.23
2023-02-24T19:01:15.154Z,10.70
2023-02-24T19:03:48.973Z,16.42
2023-02-24T19:06:22.808Z,35.28
2023-02-24T19:09:02.360Z,37.08
2023-02-24T19:11:34.942Z,32.33
2023-02-24T19:14:09.835Z,27.58
2023-02-24T19:16:43.722Z,19.90
2023-02-24T19:19:17.074Z,17.45
2023-02-24T19:21:49.938Z,17.20
2023-02-24T19:24:22.960Z,19.38
2023-02-24T19:26:55.510Z,34.47
2023-02-24T19:29:28.510Z,25.33
2023-02-24T19:32:01.210Z,19.30
2023-02-24T19:34:34.454Z,18.85
2023-02-24T19:37:07.050Z,17.05
2023-02-24T19:39:39.958Z,15.05
2023-02-24T19:42:12.753Z,13.77
2023-02-24T19:44:45.794Z,29.15
2023-02-24T19:47:19.092Z,17.98
2023-02-24T19:49:52.210Z,22.30
2023-02-24T19:52:24.714Z,20.67
2023-02-24T19:54:58.358Z,19.70
2023-02-24T19:57:32.483Z,21.83
2023-02-24T20:00:06.187Z,17.25
2023-02-24T20:02:44.492Z,18.10
2023-02-24T20:05:17.672Z,13.60
2023-02-24T20:07:50.268Z,12.60
2023-02-24T20:10:23.195Z,12.27
2023-02-24T20:12:55.756Z,11.50
2023-02-24T20:15:29.127Z,13.70
2023-02-24T20:18:04.974Z,15.15
2023-02-24T20:20:37.873Z,19.98
2023-02-24T20:23:10.398Z,17.10
2023-02-24T20:25:50.086Z,15.35
2023-02-24T20:28:23.297Z,12.20
2023-02-24T20:30:56.992Z,12.35
2023-02-24T20:33:29.688Z,7.32
2023-02-24T20:36:06.962Z,6.18
2023-02-24T20:38:39.699Z,6.63
2023-02-24T20:41:12.754Z,5.43
2023-02-24T20:43:45.493Z,4.43
2023-02-24T20:46:20.243Z,3.75
2023-02-24T20:48:55.470Z,4.57
2023-02-24T20:51:29.681Z,5.03
2023-02-24T20:54:02.232Z,6.20
2023-02-24T20:56:36.737Z,4.38
2023-02-24T20:59:14.310Z,5.05
2023-02-24T21:01:48.183Z,5.80
2023-02-24T21:04:21.415Z,4.85
2023-02-24T21:06:54.620Z,3.85
2023-02-24T21:09:27.656Z,4.38
2023-02-24T21:12:00.575Z,3.95
2023-02-24T21:14:33.247Z,3.80
2023-02-24T21:17:06.094Z,3.60
2023-02-24T21:19:39.047Z,4.43
2023-02-24T21:22:12.103Z,5.78
2023-02-24T21:24:44.856Z,7.45
2023-02-24T21:27:17.788Z,5.13
2023-02-24T21:29:50.335Z,4.88
2023-02-24T21:32:23.802Z,5.30
2023-02-24T21:34:56.798Z,5.07
2023-02-24T21:37:30.026Z,5.72
2023-02-24T21:40:02.682Z,4.65
2023-02-24T21:42:35.623Z,3.97
2023-02-24T21:45:10.211Z,5.13
2023-02-24T21:47:43.285Z,4.55
2023-02-24T21:50:18.987Z,4.78
2023-02-24T21:52:52.043Z,4.35
2023-02-24T21:55:26.357Z,5.63
2023-02-24T21:57:59.205Z,4.82
2023-02-24T22:00:32.107Z,4.63
2023-02-24T22:03:05.073Z,5.43
2023-02-24T22:05:38.101Z,4.45
2023-02-24T22:08:10.979Z,4.90
2023-02-24T22:10:43.597Z,5.43
2023-02-24T22:13:16.514Z,10.15
2023-02-24T22:15:49.061Z,4.80
2023-02-24T22:18:21.906Z,6.22
2023-02-24T22:20:54.412Z,5.65
2023-02-24T22:23:27.700Z,6.90
2023-02-24T22:26:07.318Z,15.02
2023-02-24T22:28:41.126Z,27.98
2023-02-24T22:31:14.856Z,27.30
2023-02-24T22:33:49.692Z,21.70
2023-02-24T22:36:25.426Z,21.80
2023-02-24T22:38:58.813Z,22.02
2023-02-24T22:41:32.584Z,22.10
2023-02-24T22:44:06.073Z,18.77
2023-02-24T22:46:39.100Z,20.73
2023-02-24T22:49:11.996Z,15.45
2023-02-24T22:51:46.000Z,16.92
2023-02-24T22:54:19.544Z,14.98
2023-02-24T22:56:55.994Z,15.02
2023-02-24T22:59:29.011Z,12.38
2023-02-24T23:02:01.615Z,11.45
2023-02-24T23:04:35.757Z,14.82
2023-02-24T23:07:08.392Z,13.90
2023-02-24T23:09:41.407Z,17.38
2023-02-24T23:12:15.638Z,15.65
2023-02-24T23:14:48.663Z,14.52
2023-02-24T23:17:22.179Z,14.95
2023-02-24T23:19:55.015Z,12.80
2023-02-24T23:22:27.500Z,13.73
2023-02-24T23:25:00.344Z,11.65
2023-02-24T23:27:32.909Z,9.45
2023-02-24T23:30:10.063Z,7.13
2023-02-24T23:32:44.228Z,12.68
2023-02-24T23:35:18.012Z,12.68
2023-02-24T23:37:50.566Z,12.15
2023-02-24T23:40:26.454Z,11.75
2023-02-24T23:42:59.789Z,10.63
2023-02-24T23:45:32.947Z,10.05
2023-02-24T23:48:05.598Z,9.68
2023-02-24T23:50:38.721Z,8.15
2023-02-24T23:53:11.362Z,10.27
2023-02-24T23:55:44.246Z,9.15
2023-02-24T23:58:17.108Z,10.63
